TAP25M LPPR-LPFR
Flight info
| Callsign | TAP25M |
|---|---|
| Flight time | N/A |
| Altitude | 33000 |
| Route | MANIK DCT INBOM DCT ALAGU |
| Aircraft | A320/M-SDE3FGHIRWY/LB1 |
Departure
| Time | 2026-05-06 16:44 |
|---|---|
| Airport | Francisco de Sá Carneiro Airport (LPPR) |
Arrival
| Time | N/A |
|---|---|
| Airport | Faro - Gago Coutinho International Airport (LPFR) |
| Time | Latitude | Longitude | Altitude | Speed | Heading |
|---|---|---|---|---|---|
| 2026-05-06 16:29 | 41.23387 | -8.67463 | 265 ft | 0 kts | 259° |
| 2026-05-06 16:39 | 41.23388 | -8.67458 | 265 ft | 2 kts | 258° |
| 2026-05-06 16:39 | 41.23391 | -8.67436 | 264 ft | 2 kts | 259° |
| 2026-05-06 16:39 | 41.23395 | -8.67415 | 263 ft | 2 kts | 257° |
| 2026-05-06 16:40 | 41.23398 | -8.67394 | 263 ft | 2 kts | 254° |
| 2026-05-06 16:40 | 41.23404 | -8.67373 | 262 ft | 2 kts | 222° |
| 2026-05-06 16:40 | 41.23414 | -8.67367 | 262 ft | 1 kts | 167° |
| 2026-05-06 16:40 | 41.23415 | -8.67368 | 262 ft | 0 kts | 168° |
| 2026-05-06 16:42 | 41.23399 | -8.67365 | 262 ft | 6 kts | 179° |
| 2026-05-06 16:42 | 41.23352 | -8.67383 | 263 ft | 11 kts | 217° |
| 2026-05-06 16:43 | 41.23324 | -8.67492 | 268 ft | 12 kts | 259° |
| 2026-05-06 16:43 | 41.23311 | -8.67582 | 273 ft | 8 kts | 259° |
| 2026-05-06 16:43 | 41.23300 | -8.67666 | 277 ft | 12 kts | 269° |
| 2026-05-06 16:43 | 41.23347 | -8.67743 | 276 ft | 0 kts | 345° |
| 2026-05-06 16:44 | 41.23395 | -8.67757 | 274 ft | 35 kts | 348° |
| 2026-05-06 16:44 | 41.23928 | -8.67897 | 253 ft | 118 kts | 349° |
| 2026-05-06 16:44 | 41.24926 | -8.68171 | 448 ft | 160 kts | 346° |
| 2026-05-06 16:44 | 41.26010 | -8.68450 | 1349 ft | 158 kts | 347° |
| 2026-05-06 16:45 | 41.27102 | -8.68736 | 1995 ft | 166 kts | 346° |
| 2026-05-06 16:45 | 41.28310 | -8.69053 | 2341 ft | 188 kts | 347° |
| 2026-05-06 16:45 | 41.29670 | -8.69407 | 2632 ft | 212 kts | 347° |
| 2026-05-06 16:45 | 41.31199 | -8.69807 | 3058 ft | 235 kts | 347° |
| 2026-05-06 16:46 | 41.32847 | -8.70236 | 3740 ft | 246 kts | 349° |
| 2026-05-06 16:46 | 41.34591 | -8.70210 | 4440 ft | 258 kts | 14° |
| 2026-05-06 16:46 | 41.36182 | -8.69069 | 5193 ft | 266 kts | 44° |
| 2026-05-06 16:46 | 41.37168 | -8.66991 | 6008 ft | 270 kts | 74° |
| 2026-05-06 16:47 | 41.37244 | -8.64506 | 6795 ft | 273 kts | 104° |
| 2026-05-06 16:47 | 41.36373 | -8.62277 | 7578 ft | 276 kts | 134° |
| 2026-05-06 16:47 | 41.34763 | -8.60927 | 8407 ft | 277 kts | 163° |
| 2026-05-06 16:47 | 41.32867 | -8.60386 | 9250 ft | 280 kts | 169° |
| 2026-05-06 16:48 | 41.30942 | -8.59910 | 10057 ft | 283 kts | 169° |
| 2026-05-06 16:48 | 41.28950 | -8.59426 | 10447 ft | 302 kts | 169° |
| 2026-05-06 16:48 | 41.26808 | -8.58902 | 10652 ft | 324 kts | 169° |
| 2026-05-06 16:48 | 41.24536 | -8.58334 | 11058 ft | 337 kts | 169° |
| 2026-05-06 16:49 | 41.22213 | -8.57749 | 11712 ft | 343 kts | 169° |
| 2026-05-06 16:49 | 41.19855 | -8.57154 | 12386 ft | 347 kts | 169° |
| 2026-05-06 16:49 | 41.17464 | -8.56542 | 13013 ft | 352 kts | 170° |
| 2026-05-06 16:49 | 41.15043 | -8.55922 | 13660 ft | 357 kts | 170° |
| 2026-05-06 16:50 | 41.12588 | -8.55302 | 14240 ft | 361 kts | 170° |
| 2026-05-06 16:50 | 41.10104 | -8.54682 | 14859 ft | 364 kts | 171° |
| 2026-05-06 16:50 | 41.07602 | -8.54050 | 15479 ft | 367 kts | 170° |
| 2026-05-06 16:50 | 41.05938 | -8.53629 | 15892 ft | 368 kts | 171° |
| 2026-05-06 16:51 | 41.02554 | -8.52779 | 16704 ft | 372 kts | 171° |
| 2026-05-06 16:51 | 41.00003 | -8.52139 | 17292 ft | 375 kts | 171° |
| 2026-05-06 16:51 | 40.97431 | -8.51492 | 17870 ft | 378 kts | 171° |
| 2026-05-06 16:51 | 40.94840 | -8.50838 | 18414 ft | 381 kts | 171° |
| 2026-05-06 16:52 | 40.92231 | -8.50175 | 18934 ft | 382 kts | 171° |
| 2026-05-06 16:52 | 40.89617 | -8.49512 | 19429 ft | 385 kts | 171° |
| 2026-05-06 16:52 | 40.86982 | -8.48851 | 19951 ft | 386 kts | 172° |
| 2026-05-06 16:52 | 40.84331 | -8.48191 | 20416 ft | 390 kts | 171° |
| 2026-05-06 16:53 | 40.81658 | -8.47523 | 20897 ft | 392 kts | 171° |
| 2026-05-06 16:53 | 40.79878 | -8.47077 | 21203 ft | 394 kts | 171° |
| 2026-05-06 16:53 | 40.76260 | -8.46171 | 21822 ft | 397 kts | 172° |
| 2026-05-06 16:53 | 40.74461 | -8.45721 | 22125 ft | 398 kts | 172° |
| 2026-05-06 16:54 | 40.71729 | -8.45042 | 22589 ft | 400 kts | 172° |
| 2026-05-06 16:54 | 40.68985 | -8.44362 | 23045 ft | 403 kts | 172° |
| 2026-05-06 16:54 | 40.66218 | -8.43672 | 23474 ft | 405 kts | 171° |
| 2026-05-06 16:54 | 40.63439 | -8.42977 | 23837 ft | 408 kts | 171° |
| 2026-05-06 16:55 | 40.60642 | -8.42281 | 24209 ft | 410 kts | 172° |
| 2026-05-06 16:55 | 40.57831 | -8.41583 | 24585 ft | 411 kts | 172° |
| 2026-05-06 16:55 | 40.55015 | -8.40885 | 24964 ft | 413 kts | 172° |
| 2026-05-06 16:55 | 40.52189 | -8.40186 | 25317 ft | 414 kts | 172° |
| 2026-05-06 16:56 | 40.49348 | -8.39487 | 25654 ft | 416 kts | 172° |
| 2026-05-06 16:56 | 40.46493 | -8.38784 | 26000 ft | 418 kts | 172° |
| 2026-05-06 16:56 | 40.43626 | -8.38073 | 26342 ft | 420 kts | 172° |
| 2026-05-06 16:56 | 40.40745 | -8.37356 | 26690 ft | 422 kts | 172° |
| 2026-05-06 16:57 | 40.37857 | -8.36638 | 27037 ft | 424 kts | 172° |
| 2026-05-06 16:57 | 40.34954 | -8.35918 | 27380 ft | 426 kts | 172° |
| 2026-05-06 16:57 | 40.32038 | -8.35194 | 27713 ft | 427 kts | 172° |